SBPP/PMG METAR and TAF weather

Enter ICAO airport designator
Station Type Date Time Source
SBPP METAR 2022/11/30 18:00 UTC NOAA

SBPP 301800Z 00000KT 9999 SCT020 28/18 Q1005 RETS


Station Type Date Time Source
SBPP Decoded METAR 2022/11/30 18:00 UTC NOAA

Ponta Pora Intl , Brazil (SBPP) 22-33S 055-42W
Nov 30, 2022 - 01:00 PM EST / 2022.11.30 1800 UTC
Wind: Calm:0
Visibility: greater than 7 mile(s):0
Sky conditions: partly cloudy
Temperature: 82 F (28 C)
Dew Point: 64 F (18 C)
Relative Humidity: 54%
Pressure (altimeter): 29.68 in. Hg (1005 hPa)
ob: SBPP 301800Z 00000KT 9999 SCT020 28/18 Q1005 RETS
cycle: 18

Station Type Date Time Source
SBPP TAF 2022/11/30 18:23 UTC NOAA

TAF SBPP 301615Z 3018/0118 15010KT 9999 SCT025 TN20/0110Z TX32/0117Z
BECMG 3021/3023 10005KT CAVOK
BECMG 0112/0114 35010KT
BECMG 0114/0116 27005KT SCT025
RMK PGG

Example: see airport list